Time;durP1;ratioP1;P1;durP2;ratioP2;P2;SDS_P1;SDS_P2;PMS_P1;PMS_P2;Temp;Humidity;BMP_temperature;BMP_pressure;BME280_temperature;BME280_humidity;BME280_pressure;Samples;Min_cycle;Max_cycle;Signal;HPM_P1;HPM_P2
2021/07/10 00:02:16;;;;;;;6.03;4.28;;;;;;;25.33;100.00;101276.31;4851682;29;20037;-77
2021/07/10 00:05:02;;;;;;;7.60;4.05;;;;;;;25.01;100.00;101266.03;4864265;29;20040;-77
2021/07/10 00:07:48;;;;;;;7.65;3.80;;;;;;;25.38;100.00;101268.78;4865177;29;20108;-77
2021/07/10 00:10:34;;;;;;;7.88;4.25;;;;;;;25.23;100.00;101259.09;4850998;29;20033;-77
2021/07/10 00:13:20;;;;;;;5.47;4.25;;;;;;;25.52;100.00;101271.34;4863558;29;20053;-77
2021/07/10 00:16:05;;;;;;;6.80;4.20;;;;;;;25.42;100.00;101261.38;4864730;29;20048;-77
2021/07/10 00:18:51;;;;;;;5.78;4.00;;;;;;;25.49;100.00;101265.34;4863481;29;20035;-77
2021/07/10 00:21:37;;;;;;;4.63;4.10;;;;;;;25.43;100.00;101261.28;4863785;29;20040;-77
2021/07/10 00:24:23;;;;;;;6.22;3.85;;;;;;;25.56;100.00;101253.22;4851012;29;20098;-77
2021/07/10 00:27:09;;;;;;;6.22;3.90;;;;;;;25.38;100.00;101259.88;4864747;29;20053;-77
2021/07/10 00:29:54;;;;;;;4.30;3.90;;;;;;;25.39;100.00;101257.09;4863691;29;20076;-77
2021/07/10 00:32:40;;;;;;;6.47;3.72;;;;;;;25.26;100.00;101253.53;4863769;29;20057;-77
2021/07/10 00:35:26;;;;;;;6.50;4.00;;;;;;;25.05;100.00;101248.78;4863273;29;20026;-77
2021/07/10 00:38:12;;;;;;;4.35;3.90;;;;;;;24.91;100.00;101252.41;4863992;29;20046;-77
2021/07/10 00:40:57;;;;;;;8.05;4.57;;;;;;;25.21;100.00;101254.81;4863208;29;20060;-77
2021/07/10 00:43:50;;;;;;;5.28;4.03;;;;;;;24.94;100.00;101254.00;4862768;29;20049;-77
2021/07/10 00:46:36;;;;;;;6.70;4.28;;;;;;;24.99;100.00;101242.00;4851174;29;20033;-77
2021/07/10 00:49:22;;;;;;;4.95;3.88;;;;;;;25.01;100.00;101244.59;4850899;29;20097;-77
2021/07/10 00:52:08;;;;;;;8.27;4.25;;;;;;;25.41;100.00;101240.88;4864071;29;20136;-77
2021/07/10 00:54:54;;;;;;;10.82;4.68;;;;;;;25.08;100.00;101246.72;4863037;29;20033;-77
2021/07/10 00:57:42;;;;;;;6.68;4.30;;;;;;;25.19;100.00;101244.16;4863984;29;20329;-77
2021/07/10 01:00:28;;;;;;;6.00;4.07;;;;;;;25.11;100.00;101240.31;4863203;29;20026;-77
2021/07/10 01:03:14;;;;;;;6.40;3.83;;;;;;;25.09;100.00;101229.69;4864113;29;20037;-77
2021/07/10 01:06:01;;;;;;;7.38;4.18;;;;;;;24.96;100.00;101227.97;4863051;29;20033;-77
2021/07/10 01:08:48;;;;;;;5.05;3.83;;;;;;;24.58;100.00;101221.63;4863810;29;20029;-77
2021/07/10 01:11:34;;;;;;;9.75;3.95;;;;;;;24.32;100.00;101219.84;4863572;29;20100;-77
2021/07/10 01:14:20;;;;;;;14.02;4.22;;;;;;;24.41;100.00;101214.72;4863115;29;20021;-77
2021/07/10 01:17:06;;;;;;;9.13;4.57;;;;;;;24.47;100.00;101205.44;4863137;29;20034;-77
2021/07/10 01:20:06;;;;;;;6.85;4.55;;;;;;;24.54;100.00;101210.25;4862953;29;20044;-77
2021/07/10 01:22:53;;;;;;;9.18;4.07;;;;;;;24.29;100.00;101206.63;4849230;29;20041;-77
2021/07/10 01:25:39;;;;;;;5.43;3.83;;;;;;;24.39;100.00;101202.41;4862333;29;20040;-77
2021/07/10 01:28:25;;;;;;;6.70;4.53;;;;;;;24.49;100.00;101198.13;4861782;29;20495;-77
2021/07/10 01:31:11;;;;;;;5.95;4.30;;;;;;;24.29;100.00;101204.81;4862847;29;20037;-77
2021/07/10 01:34:00;;;;;;;6.20;4.22;;;;;;;24.39;100.00;101210.44;4862461;29;20336;-77
2021/07/10 01:36:46;;;;;;;6.85;4.10;;;;;;;24.41;100.00;101192.44;4863155;29;20038;-77
2021/07/10 01:39:31;;;;;;;9.05;4.35;;;;;;;24.22;100.00;101200.81;4861969;29;20034;-77
2021/07/10 01:42:19;;;;;;;7.38;4.07;;;;;;;24.31;100.00;101194.84;4862323;29;20085;-77
2021/07/10 01:45:05;;;;;;;6.07;4.00;;;;;;;24.22;100.00;101194.63;4863014;29;20041;-77
2021/07/10 01:47:51;;;;;;;9.50;4.97;;;;;;;24.21;100.00;101188.41;4861475;29;20112;-77
2021/07/10 01:50:37;;;;;;;6.40;5.00;;;;;;;24.06;100.00;101189.41;4864267;29;20169;-77
2021/07/10 01:53:23;;;;;;;7.25;5.72;;;;;;;23.85;100.00;101182.75;4862661;29;20036;-76
2021/07/10 01:56:09;;;;;;;9.02;5.53;;;;;;;23.91;100.00;101181.50;4862587;29;20367;-77
2021/07/10 01:58:55;;;;;;;7.88;5.72;;;;;;;23.57;100.00;101179.25;4862508;29;20144;-77
2021/07/10 02:01:49;;;;;;;9.20;6.50;;;;;;;24.09;100.00;101181.19;4862578;29;20136;-77
2021/07/10 02:04:48;;;;;;;6.13;5.38;;;;;;;24.14;100.00;101178.22;4863849;29;20036;-77
2021/07/10 02:07:34;;;;;;;7.90;5.40;;;;;;;24.35;100.00;101177.63;4863042;29;20073;-77
2021/07/10 02:10:21;;;;;;;17.58;6.22;;;;;;;23.93;100.00;101174.25;4862437;29;20034;-77
2021/07/10 02:13:11;;;;;;;9.43;5.72;;;;;;;24.16;100.00;101187.84;4863999;29;20022;-77
2021/07/10 02:15:56;;;;;;;12.32;6.95;;;;;;;24.10;100.00;101190.09;4853193;29;20029;-77
2021/07/10 02:18:42;;;;;;;10.88;7.88;;;;;;;23.84;100.00;101180.16;4853544;29;20116;-77
2021/07/10 02:21:28;;;;;;;16.25;8.40;;;;;;;23.91;100.00;101182.38;4865863;29;20092;-77
2021/07/10 02:24:14;;;;;;;10.02;7.88;;;;;;;23.88;100.00;101187.03;4865163;29;20493;-77
2021/07/10 02:27:01;;;;;;;12.93;8.40;;;;;;;23.50;100.00;101191.31;4866115;29;20124;-77
2021/07/10 02:29:46;;;;;;;12.88;7.57;;;;;;;23.85;100.00;101195.25;4865204;29;20055;-77
2021/07/10 02:32:32;;;;;;;15.98;8.13;;;;;;;23.36;100.00;101200.22;4866433;29;20375;-77
2021/07/10 02:35:18;;;;;;;15.10;8.40;;;;;;;23.69;100.00;101191.84;4865420;29;20044;-77
2021/07/10 02:38:05;;;;;;;12.85;8.95;;;;;;;23.57;100.00;101200.66;4865805;29;20037;-77
2021/07/10 02:40:51;;;;;;;15.68;9.98;;;;;;;23.63;100.00;101213.66;4865452;29;20064;-77
2021/07/10 02:43:37;;;;;;;17.67;8.52;;;;;;;23.65;100.00;101211.72;4864926;29;20045;-77
2021/07/10 02:46:22;;;;;;;8.48;7.47;;;;;;;23.04;100.00;101222.69;4865858;29;20037;-77
2021/07/10 02:49:08;;;;;;;9.45;6.53;;;;;;;22.99;100.00;101214.94;4865222;29;20506;-77
2021/07/10 02:51:54;;;;;;;8.77;6.88;;;;;;;23.01;100.00;101210.38;4866289;29;20029;-77
2021/07/10 02:54:40;;;;;;;11.02;6.70;;;;;;;22.96;100.00;101223.16;4865395;29;20026;-77
2021/07/10 02:57:26;;;;;;;10.57;6.57;;;;;;;23.13;100.00;101209.63;4865390;29;20033;-76
2021/07/10 03:00:17;;;;;;;16.58;6.90;;;;;;;23.11;100.00;101219.53;4864323;29;20025;-77
2021/07/10 03:03:03;;;;;;;7.68;6.88;;;;;;;23.05;100.00;101211.91;4865792;29;20455;-77
2021/07/10 03:05:50;;;;;;;11.75;7.38;;;;;;;22.82;100.00;101215.09;4865360;29;20037;-77
2021/07/10 03:08:35;;;;;;;14.68;6.90;;;;;;;22.71;100.00;101214.88;4864552;29;20053;-77
2021/07/10 03:11:21;;;;;;;10.30;6.40;;;;;;;22.51;100.00;101203.66;4864758;29;20470;-77
2021/07/10 03:14:07;;;;;;;8.95;6.20;;;;;;;22.97;100.00;101206.16;4865166;29;20025;-77
2021/07/10 03:16:53;;;;;;;7.82;6.18;;;;;;;22.89;100.00;101197.75;4865934;29;20030;-77
2021/07/10 03:19:39;;;;;;;11.93;6.35;;;;;;;22.72;100.00;101207.72;4865042;29;20022;-77
2021/07/10 03:22:24;;;;;;;11.77;6.28;;;;;;;22.70;100.00;101194.44;4864904;29;20082;-77
2021/07/10 03:25:11;;;;;;;9.30;5.93;;;;;;;22.65;100.00;101196.56;4863961;29;20061;-77
2021/07/10 03:27:57;;;;;;;7.93;5.70;;;;;;;22.79;100.00;101201.91;4851631;29;20045;-77
2021/07/10 03:30:48;;;;;;;9.05;6.03;;;;;;;22.68;100.00;101208.84;4864740;29;20108;-77
2021/07/10 03:33:37;;;;;;;8.77;5.70;;;;;;;22.61;100.00;101200.34;4852687;29;20029;-77
2021/07/10 03:36:26;;;;;;;8.13;5.55;;;;;;;22.95;100.00;101201.88;4864588;29;20036;-77
2021/07/10 03:39:11;;;;;;;10.07;6.43;;;;;;;22.71;100.00;101214.03;4852664;29;20025;-77
2021/07/10 03:41:57;;;;;;;9.90;6.13;;;;;;;22.76;100.00;101207.47;4863851;29;20359;-77
2021/07/10 03:44:43;;;;;;;11.30;5.88;;;;;;;22.79;100.00;101207.25;4865060;29;20034;-77
2021/07/10 03:47:31;;;;;;;7.90;5.70;;;;;;;22.78;100.00;101207.34;4864312;29;20037;-77
2021/07/10 03:50:17;;;;;;;10.02;5.90;;;;;;;23.03;100.00;101205.78;4851937;29;20040;-77
2021/07/10 03:53:03;;;;;;;9.60;5.90;;;;;;;22.74;100.00;101209.34;4863652;29;20017;-77
2021/07/10 03:55:49;;;;;;;13.27;5.85;;;;;;;23.06;100.00;101207.41;4863907;29;20037;-77
2021/07/10 03:58:35;;;;;;;8.38;6.13;;;;;;;23.02;100.00;101212.09;4864478;29;20423;-77
2021/07/10 04:01:21;;;;;;;5.90;5.30;;;;;;;23.03;100.00;101212.94;4851798;29;20081;-77
2021/07/10 04:04:07;;;;;;;8.10;6.00;;;;;;;23.13;100.00;101211.41;4863891;29;20064;-77
2021/07/10 04:06:53;;;;;;;9.13;5.60;;;;;;;22.82;100.00;101211.56;4863717;29;20453;-77
2021/07/10 04:09:39;;;;;;;7.72;6.10;;;;;;;23.24;100.00;101212.50;4864842;29;20033;-78
2021/07/10 04:12:24;;;;;;;13.75;6.20;;;;;;;23.26;100.00;101215.97;4863923;29;20037;-78
2021/07/10 04:15:12;;;;;;;9.98;5.10;;;;;;;23.81;100.00;101216.03;4864696;29;20037;-77
2021/07/10 04:17:58;;;;;;;10.27;6.82;;;;;;;24.00;100.00;101218.41;4864869;29;20036;-78
2021/07/10 04:20:43;;;;;;;8.05;5.57;;;;;;;23.87;100.00;101217.44;4851986;29;20030;-77
2021/07/10 04:23:29;;;;;;;12.00;5.82;;;;;;;23.84;100.00;101217.63;4863366;29;20181;-77
2021/07/10 04:26:15;;;;;;;8.02;5.68;;;;;;;24.11;100.00;101215.91;4863496;29;20030;-78
2021/07/10 04:29:01;;;;;;;12.50;5.68;;;;;;;23.82;100.00;101214.22;4863718;29;20033;-78
2021/07/10 04:31:46;;;;;;;11.80;5.72;;;;;;;24.10;100.00;101214.19;4863678;29;20038;-78
2021/07/10 04:34:32;;;;;;;9.15;5.63;;;;;;;24.21;100.00;101220.53;4862764;29;20029;-76
2021/07/10 04:37:18;;;;;;;7.57;5.40;;;;;;;24.46;100.00;101217.06;4862939;29;20026;-77
2021/07/10 04:40:06;;;;;;;8.07;5.82;;;;;;;24.26;100.00;101215.72;4863751;29;20041;-76
2021/07/10 04:42:52;;;;;;;8.70;6.60;;;;;;;24.20;100.00;101216.16;4863349;29;20130;-77
2021/07/10 04:45:39;;;;;;;12.05;6.70;;;;;;;24.05;100.00;101221.63;4863911;29;20025;-77
2021/07/10 04:48:25;;;;;;;7.97;6.75;;;;;;;24.29;100.00;101223.56;4862759;29;20025;-76
2021/07/10 04:51:12;;;;;;;10.35;5.88;;;;;;;24.39;100.00;101222.00;4863893;29;20173;-76
2021/07/10 04:53:57;;;;;;;11.57;6.60;;;;;;;24.32;100.00;101226.06;4863714;29;20041;-76
2021/07/10 04:56:49;;;;;;;11.02;6.50;;;;;;;24.51;100.00;101217.66;5113356;27;20671;-77
2021/07/10 04:59:35;;;;;;;9.45;6.30;;;;;;;24.55;100.00;101232.56;5110865;28;20100;-76
2021/07/10 05:02:21;;;;;;;14.00;6.57;;;;;;;24.81;100.00;101229.88;5111156;28;20077;-76
2021/07/10 05:05:07;;;;;;;9.93;6.47;;;;;;;24.61;100.00;101237.53;5111217;28;20132;-77
2021/07/10 05:07:53;;;;;;;10.93;6.22;;;;;;;24.99;100.00;101238.50;5110123;28;20047;-76
2021/07/10 05:10:39;;;;;;;9.00;6.28;;;;;;;24.65;100.00;101237.22;5118438;28;20131;-77
2021/07/10 05:13:25;;;;;;;10.45;6.53;;;;;;;25.15;100.00;101231.94;5118169;28;20031;-77
2021/07/10 05:16:11;;;;;;;11.00;6.00;;;;;;;24.78;100.00;101231.88;5133572;27;20019;-77
2021/07/10 05:18:57;;;;;;;8.15;5.60;;;;;;;25.01;100.00;101240.09;5131709;28;20023;-77
2021/07/10 05:21:42;;;;;;;9.02;6.07;;;;;;;25.16;100.00;101246.22;5132236;28;20122;-77
2021/07/10 05:24:28;;;;;;;9.00;5.97;;;;;;;25.15;100.00;101239.97;5131152;28;20027;-77
2021/07/10 05:27:14;;;;;;;7.70;5.40;;;;;;;25.19;100.00;101243.34;5117767;28;20379;-77
2021/07/10 05:30:00;;;;;;;8.45;5.50;;;;;;;25.60;100.00;101244.00;5131527;28;20092;-77
2021/07/10 05:32:45;;;;;;;10.45;6.25;;;;;;;25.50;100.00;101246.47;5131904;28;20033;-77
2021/07/10 05:35:32;;;;;;;10.35;5.55;;;;;;;25.49;100.00;101247.44;5131462;28;20037;-79
2021/07/10 05:38:17;;;;;;;6.28;5.45;;;;;;;25.71;100.00;101244.06;5131895;28;20084;-78
2021/07/10 05:41:15;;;;;;;9.55;5.32;;;;;;;25.81;100.00;101250.50;5102090;28;20024;-78
2021/07/10 05:44:01;;;;;;;9.70;5.65;;;;;;;26.19;100.00;101254.84;5130648;28;20097;-78
2021/07/10 05:46:46;;;;;;;10.25;6.07;;;;;;;26.12;100.00;101258.09;5131269;28;20451;-77
2021/07/10 05:49:32;;;;;;;10.95;5.75;;;;;;;26.04;100.00;101264.00;5131212;28;20031;-77
2021/07/10 05:52:18;;;;;;;11.98;6.32;;;;;;;25.55;100.00;101259.56;5131273;28;20028;-77
2021/07/10 05:55:05;;;;;;;9.23;6.10;;;;;;;26.04;100.00;101265.84;5130358;27;20043;-77
2021/07/10 05:57:51;;;;;;;8.38;6.45;;;;;;;26.17;100.00;101262.16;5131859;28;20084;-77
2021/07/10 06:00:37;;;;;;;9.68;6.15;;;;;;;25.91;100.00;101260.47;5130476;28;20055;-77
2021/07/10 06:03:27;;;;;;;8.23;6.07;;;;;;;25.95;100.00;101258.44;5103554;28;20023;-78
2021/07/10 06:06:14;;;;;;;6.68;5.68;;;;;;;26.22;100.00;101262.69;5114064;28;20020;-77
2021/07/10 06:09:19;;;;;;;10.68;5.90;;;;;;;26.45;100.00;101264.50;5117920;28;20027;-77
2021/07/10 06:12:05;;;;;;;9.20;5.93;;;;;;;26.77;100.00;101259.44;5101837;28;20073;-78
2021/07/10 06:15:12;;;;;;;8.35;5.70;;;;;;;27.02;100.00;101272.72;5117132;28;20077;-78
2021/07/10 06:17:58;;;;;;;10.00;6.45;;;;;;;26.96;100.00;101268.66;5096733;28;20024;-77
2021/07/10 06:20:43;;;;;;;7.97;6.00;;;;;;;26.84;100.00;101266.91;5116768;28;20027;-78
2021/07/10 06:23:29;;;;;;;7.88;5.70;;;;;;;26.88;100.00;101279.16;5102408;28;20100;-77
2021/07/10 06:26:15;;;;;;;9.63;5.40;;;;;;;27.18;96.26;101275.94;5116534;28;20048;-77
2021/07/10 06:29:02;;;;;;;9.75;5.50;;;;;;;27.18;95.01;101275.94;5117057;28;20121;-77
2021/07/10 06:31:48;;;;;;;13.50;5.30;;;;;;;27.35;90.38;101283.59;5116624;28;20031;-77
2021/07/10 06:34:34;;;;;;;8.02;5.03;;;;;;;27.58;88.60;101273.72;5117728;27;20032;-76
2021/07/10 06:37:20;;;;;;;7.53;4.85;;;;;;;27.58;85.11;101277.28;5116245;28;20080;-76
2021/07/10 06:40:08;;;;;;;10.50;4.95;;;;;;;27.94;79.85;101281.59;5116657;28;20333;-77
2021/07/10 06:42:54;;;;;;;10.02;5.05;;;;;;;28.10;81.85;101271.28;5116272;28;20027;-76
2021/07/10 06:45:40;;;;;;;7.38;4.32;;;;;;;27.45;82.66;101269.28;5117228;28;20020;-77
2021/07/10 06:48:26;;;;;;;10.23;4.85;;;;;;;27.90;83.34;101270.22;5116646;28;20045;-77
2021/07/10 06:51:11;;;;;;;5.55;4.60;;;;;;;27.83;80.89;101278.88;5116589;28;20027;-77
2021/07/10 06:53:57;;;;;;;4.70;4.20;;;;;;;28.14;77.88;101267.34;5115137;28;20447;-76
2021/07/10 06:56:43;;;;;;;10.05;4.57;;;;;;;28.20;77.15;101270.41;5114802;28;20051;-76
2021/07/10 06:59:29;;;;;;;7.30;4.78;;;;;;;28.22;76.35;101272.97;5115840;28;20023;-76
2021/07/10 07:02:14;;;;;;;8.65;4.70;;;;;;;28.35;74.46;101268.28;5117067;27;20034;-77
2021/07/10 07:05:00;;;;;;;5.95;4.55;;;;;;;28.43;67.54;101276.63;5102763;27;20031;-77
2021/07/10 07:07:46;;;;;;;5.18;4.18;;;;;;;28.75;65.82;101272.97;5115782;28;20027;-78
2021/07/10 07:10:32;;;;;;;6.07;4.45;;;;;;;28.53;66.79;101273.03;5116075;28;20028;-77
2021/07/10 07:13:18;;;;;;;7.93;4.65;;;;;;;28.90;69.06;101268.13;5115899;28;20015;-77
2021/07/10 07:16:04;;;;;;;8.40;4.38;;;;;;;28.59;65.11;101268.97;5109815;28;20042;-77
2021/07/10 07:18:50;;;;;;;6.25;3.95;;;;;;;28.63;61.51;101265.91;5114713;28;20051;-77
2021/07/10 07:21:36;;;;;;;8.88;3.85;;;;;;;28.80;60.36;101256.41;5116254;28;20467;-77
2021/07/10 07:24:22;;;;;;;12.95;5.28;;;;;;;29.14;62.07;101269.63;5115360;28;20020;-77
2021/07/10 07:27:07;;;;;;;10.27;4.65;;;;;;;29.14;64.95;101266.94;5116015;28;20333;-77
2021/07/10 07:29:53;;;;;;;13.40;4.97;;;;;;;29.23;65.85;101267.97;5101174;28;20020;-78
2021/07/10 07:32:39;;;;;;;5.80;4.07;;;;;;;29.75;58.42;101260.63;5115492;28;20093;-77
2021/07/10 07:35:25;;;;;;;7.75;4.07;;;;;;;29.83;56.05;101258.09;5115457;28;20064;-78
2021/07/10 07:38:11;;;;;;;11.73;4.22;;;;;;;29.94;54.46;101265.25;5115417;28;20039;-77
2021/07/10 07:40:56;;;;;;;8.55;4.38;;;;;;;29.97;54.84;101262.28;5115712;28;20028;-77
2021/07/10 07:43:42;;;;;;;10.18;4.30;;;;;;;30.41;52.89;101265.38;5100929;28;20042;-77
2021/07/10 07:46:28;;;;;;;11.40;4.45;;;;;;;29.23;53.12;101257.16;5101294;28;20101;-77
2021/07/10 07:49:14;;;;;;;9.77;4.97;;;;;;;29.42;55.23;101258.16;5100980;28;20047;-77
2021/07/10 07:52:00;;;;;;;10.27;4.60;;;;;;;29.82;55.83;101264.47;5114836;28;20027;-77
2021/07/10 07:54:45;;;;;;;8.88;4.50;;;;;;;30.05;56.00;101260.56;5099751;28;20055;-77
2021/07/10 07:57:31;;;;;;;10.48;4.00;;;;;;;30.77;51.75;101248.50;5115652;28;20339;-77
2021/07/10 08:00:21;;;;;;;7.18;4.43;;;;;;;30.75;54.27;101253.22;5114732;28;20027;-77
2021/07/10 08:03:07;;;;;;;11.00;4.20;;;;;;;30.95;54.00;101254.88;5115486;28;20051;-77
2021/07/10 08:05:53;;;;;;;6.40;4.55;;;;;;;31.14;57.21;101262.97;5115639;28;20019;-77
2021/07/10 08:08:39;;;;;;;10.20;3.60;;;;;;;31.01;49.45;101261.56;5114809;28;20364;-77
2021/07/10 08:11:24;;;;;;;7.90;4.45;;;;;;;30.93;53.07;101253.31;5115581;28;20035;-77
2021/07/10 08:14:12;;;;;;;8.82;4.18;;;;;;;31.44;56.22;101251.13;5114476;28;20156;-77
2021/07/10 08:16:58;;;;;;;15.45;5.07;;;;;;;31.34;54.03;101258.44;5115235;28;20027;-77
2021/07/10 08:19:44;;;;;;;8.55;3.90;;;;;;;30.30;50.64;101260.09;5114805;28;20455;-77
2021/07/10 08:22:29;;;;;;;8.27;3.85;;;;;;;30.29;50.67;101260.22;5114856;28;20040;-77
2021/07/10 08:25:17;;;;;;;8.43;3.95;;;;;;;31.00;51.12;101254.47;5100954;28;20031;-77
2021/07/10 08:28:03;;;;;;;6.10;3.88;;;;;;;31.71;48.85;101253.88;5115188;28;20096;-77
2021/07/10 08:30:48;;;;;;;8.80;3.67;;;;;;;32.36;46.45;101258.28;5099937;28;20106;-78
2021/07/10 08:33:34;;;;;;;7.35;4.40;;;;;;;31.83;46.60;101254.56;5114567;28;20031;-77
2021/07/10 08:36:20;;;;;;;8.27;4.43;;;;;;;32.11;45.26;101259.00;5100694;28;20364;-78
2021/07/10 08:39:10;;;;;;;7.43;3.90;;;;;;;32.13;44.15;101256.97;5114944;28;20463;-78
2021/07/10 08:41:56;;;;;;;9.63;3.80;;;;;;;32.72;44.94;101257.31;5114930;28;20368;-77
2021/07/10 08:44:42;;;;;;;9.93;3.72;;;;;;;33.11;47.29;101258.69;5113957;28;20031;-76
2021/07/10 08:47:28;;;;;;;6.03;3.58;;;;;;;33.01;49.04;101249.78;5114006;28;20351;-76
2021/07/10 08:50:18;;;;;;;8.85;4.00;;;;;;;33.33;48.87;101247.34;5113719;28;20019;-77
2021/07/10 08:53:04;;;;;;;7.20;3.33;;;;;;;33.26;46.98;101252.53;5114845;28;20352;-75
2021/07/10 08:55:50;;;;;;;5.70;3.40;;;;;;;33.10;47.06;101249.69;5114004;28;20357;-76
2021/07/10 08:58:37;;;;;;;7.20;3.50;;;;;;;33.08;47.98;101246.28;5114801;28;20376;-76
2021/07/10 09:01:23;;;;;;;5.38;3.53;;;;;;;32.53;48.93;101246.59;5113463;28;20093;-75
2021/07/10 09:04:08;;;;;;;6.35;3.30;;;;;;;33.07;48.04;101241.00;5114359;28;20031;-75
2021/07/10 09:06:54;;;;;;;6.90;3.45;;;;;;;33.02;48.80;101243.34;5100370;28;20041;-75
2021/07/10 09:09:50;;;;;;;5.40;3.15;;;;;;;33.30;43.93;101240.31;5114316;28;20490;-75
2021/07/10 09:12:35;;;;;;;8.00;3.58;;;;;;;33.25;44.63;101241.81;5113552;28;20031;-75
2021/07/10 09:15:21;;;;;;;5.65;3.60;;;;;;;32.81;44.00;101238.25;5114418;28;20511;-76
2021/07/10 09:18:08;;;;;;;4.95;3.33;;;;;;;32.37;44.61;101238.28;5114221;28;20058;-77
2021/07/10 09:20:54;;;;;;;6.25;3.13;;;;;;;32.04;44.93;101247.91;5099152;28;20027;-77
2021/07/10 09:23:44;;;;;;;6.57;3.30;;;;;;;32.43;45.36;101238.56;5113945;28;20024;-76
2021/07/10 09:26:31;;;;;;;6.60;3.05;;;;;;;33.04;44.58;101241.31;5113283;28;20035;-77
2021/07/10 09:29:26;;;;;;;4.82;2.72;;;;;;;33.22;42.86;101232.13;5114653;28;20028;-76
2021/07/10 09:32:16;;;;;;;9.18;3.53;;;;;;;32.62;42.60;101232.94;5099424;28;20042;-76
2021/07/10 09:35:03;;;;;;;5.10;3.25;;;;;;;32.47;43.49;101233.66;5113582;28;20123;-77
2021/07/10 09:37:54;;;;;;;6.55;3.20;;;;;;;32.53;43.35;101235.72;5099436;28;20024;-77
2021/07/10 09:40:39;;;;;;;8.55;3.22;;;;;;;32.81;43.64;101232.81;5099218;28;20422;-77
2021/07/10 09:43:27;;;;;;;8.07;3.50;;;;;;;33.42;44.08;101238.22;5116448;28;20019;-77
2021/07/10 09:46:24;;;;;;;5.55;3.05;;;;;;;33.77;44.89;101235.34;5118019;28;20023;-77
2021/07/10 09:49:25;;;;;;;6.32;3.20;;;;;;;33.13;43.76;101229.50;5117578;28;20356;-77
2021/07/10 09:52:12;;;;;;;8.50;3.55;;;;;;;33.35;45.03;101227.13;5102793;28;20028;-77
2021/07/10 09:55:11;;;;;;;9.20;3.45;;;;;;;33.08;44.18;101231.84;5102288;28;20344;-78
2021/07/10 09:57:58;;;;;;;7.72;3.22;;;;;;;33.06;45.53;101218.44;5104200;28;20055;-77
2021/07/10 10:00:44;;;;;;;7.75;3.40;;;;;;;32.58;43.89;101215.28;5117673;28;20080;-77
2021/07/10 10:03:33;;;;;;;8.98;3.58;;;;;;;32.36;43.01;101217.59;5101877;28;20023;-77
2021/07/10 10:06:29;;;;;;;6.43;3.47;;;;;;;32.33;46.25;101217.91;5102719;28;20106;-77
2021/07/10 10:09:23;;;;;;;5.68;3.50;;;;;;;32.54;48.08;101219.31;5117894;28;20058;-77
2021/07/10 10:12:18;;;;;;;8.48;3.38;;;;;;;32.68;49.30;101207.06;5102311;28;20031;-77
2021/07/10 10:15:09;;;;;;;4.38;3.50;;;;;;;32.95;48.31;101207.81;5102297;28;20360;-77
2021/07/10 10:17:55;;;;;;;7.32;3.63;;;;;;;32.74;48.11;101203.72;5102478;28;20050;-77
2021/07/10 10:20:42;;;;;;;5.80;3.65;;;;;;;32.82;48.80;101198.41;5102200;28;20023;-77
2021/07/10 10:23:28;;;;;;;13.35;3.50;;;;;;;33.48;46.59;101205.84;5116987;28;20160;-77
2021/07/10 10:26:14;;;;;;;7.75;3.20;;;;;;;32.60;42.30;101205.13;5102979;28;20451;-77
2021/07/10 10:29:00;;;;;;;10.02;3.30;;;;;;;32.73;42.48;101208.28;5116859;28;20050;-77
2021/07/10 10:31:47;;;;;;;5.50;3.22;;;;;;;32.12;40.91;101207.31;5116742;28;20485;-77
2021/07/10 10:34:39;;;;;;;8.85;3.13;;;;;;;32.73;40.81;101204.72;5116839;28;20035;-78
2021/07/10 10:37:25;;;;;;;4.15;3.08;;;;;;;32.45;41.49;101200.38;5116931;28;20026;-78
2021/07/10 10:40:14;;;;;;;9.10;3.40;;;;;;;32.76;43.59;101198.97;5116992;28;20432;-78
2021/07/10 10:43:02;;;;;;;4.70;3.63;;;;;;;32.85;42.65;101195.34;5101543;28;20123;-78
2021/07/10 10:45:48;;;;;;;5.40;3.60;;;;;;;33.43;45.78;101204.63;5117118;28;20015;-78
2021/07/10 10:48:40;;;;;;;5.20;3.40;;;;;;;33.30;45.21;101190.59;5101861;28;20019;-78
2021/07/10 10:51:30;;;;;;;6.75;3.28;;;;;;;33.53;46.53;101189.88;5117134;28;20089;-78
2021/07/10 10:54:19;;;;;;;4.70;3.65;;;;;;;34.12;45.67;101195.22;5102315;28;20114;-78
2021/07/10 10:57:08;;;;;;;6.75;3.53;;;;;;;33.55;45.14;101195.16;5116781;28;20050;-78
2021/07/10 10:59:55;;;;;;;8.65;3.80;;;;;;;33.42;44.92;101184.72;5116301;28;20162;-77
2021/07/10 11:02:50;;;;;;;14.27;3.55;;;;;;;32.54;42.31;101175.06;5116019;28;20051;-77
2021/07/10 11:05:45;;;;;;;7.20;3.53;;;;;;;32.77;41.71;101178.97;5117138;28;20412;-78
2021/07/10 11:08:36;;;;;;;7.85;3.67;;;;;;;32.86;42.26;101191.63;5115996;28;20034;-78
2021/07/10 11:11:24;;;;;;;9.48;3.63;;;;;;;32.19;41.84;101177.72;5117438;27;20118;-78
2021/07/10 11:14:12;;;;;;;7.70;4.00;;;;;;;32.20;42.17;101165.84;5100646;28;20054;-77
2021/07/10 11:17:02;;;;;;;6.30;3.95;;;;;;;32.29;43.07;101178.47;5101010;28;20074;-77
2021/07/10 11:19:50;;;;;;;5.90;3.75;;;;;;;31.58;43.98;101163.94;5116310;28;20027;-77
2021/07/10 11:22:53;;;;;;;10.98;3.67;;;;;;;32.22;41.63;101166.56;5101928;28;20032;-78
2021/07/10 11:25:52;;;;;;;6.00;3.45;;;;;;;32.82;45.66;101163.94;5114996;28;20116;-77
2021/07/10 11:28:38;;;;;;;4.05;3.25;;;;;;;33.32;46.24;101161.41;5101912;28;20391;-78
2021/07/10 11:31:30;;;;;;;5.82;3.25;;;;;;;33.22;43.69;101157.94;5115557;28;20023;-78
2021/07/10 11:34:18;;;;;;;7.43;3.40;;;;;;;33.39;43.47;101151.59;5101756;28;20032;-77
2021/07/10 11:37:13;;;;;;;6.47;3.45;;;;;;;33.95;43.73;101144.53;5101258;28;20032;-78
2021/07/10 11:40:02;;;;;;;6.65;3.63;;;;;;;33.89;45.33;101141.63;5115783;28;20110;-78
2021/07/10 11:42:49;;;;;;;6.43;3.63;;;;;;;34.06;43.01;101137.91;5102091;27;20062;-78
2021/07/10 11:45:45;;;;;;;10.20;3.78;;;;;;;32.94;47.82;101140.09;5100453;28;20019;-78
2021/07/10 11:48:32;;;;;;;7.80;3.45;;;;;;;33.22;46.99;101139.75;5114839;28;20032;-77
2021/07/10 11:51:18;;;;;;;5.55;3.72;;;;;;;33.88;45.63;101129.91;5115882;28;20473;-77
2021/07/10 11:54:04;;;;;;;5.80;3.60;;;;;;;33.60;45.57;101139.31;5115265;28;20114;-77
2021/07/10 11:56:51;;;;;;;8.55;3.55;;;;;;;33.62;43.61;101130.97;5079327;28;20040;-77
2021/07/10 11:59:38;;;;;;;9.55;3.72;;;;;;;34.16;42.00;101127.75;5094521;28;20052;-77
2021/07/10 12:02:27;;;;;;;9.98;3.78;;;;;;;34.11;41.85;101128.22;5094185;28;20345;-78
2021/07/10 12:05:21;;;;;;;5.53;3.33;;;;;;;34.64;40.86;101134.06;5094334;28;20031;-78
2021/07/10 12:08:07;;;;;;;4.55;3.20;;;;;;;34.01;40.27;101127.56;5078999;28;20031;-77
2021/07/10 12:10:54;;;;;;;8.25;3.60;;;;;;;33.87;40.62;101121.91;5093851;28;20031;-78
2021/07/10 12:13:40;;;;;;;9.15;4.03;;;;;;;33.57;39.38;101133.31;5093727;28;20059;-77
2021/07/10 12:16:26;;;;;;;9.48;6.35;;;;;;;34.42;39.31;101123.00;5094729;28;20430;-77
2021/07/10 12:19:14;;;;;;;5.20;3.92;;;;;;;34.62;37.10;101127.97;5093923;28;20036;-77
2021/07/10 12:22:07;;;;;;;5.25;3.80;;;;;;;34.49;38.00;101118.59;5094614;28;20020;-78
2021/07/10 12:25:02;;;;;;;7.18;3.95;;;;;;;33.23;39.46;101108.03;5094854;28;20371;-77
2021/07/10 12:28:02;;;;;;;5.72;3.90;;;;;;;33.39;40.31;101114.41;5066121;28;20093;-77
2021/07/10 12:30:51;;;;;;;5.32;3.90;;;;;;;33.94;38.87;101098.44;5080762;28;20042;-77
2021/07/10 12:33:37;;;;;;;6.88;3.83;;;;;;;33.62;39.20;101104.63;5094887;28;20036;-77
2021/07/10 12:36:28;;;;;;;5.78;3.80;;;;;;;34.05;39.32;101096.28;5093966;28;20043;-77
2021/07/10 12:39:17;;;;;;;5.88;3.78;;;;;;;34.15;40.66;101090.69;5078614;28;20337;-77
2021/07/10 12:42:07;;;;;;;10.68;3.97;;;;;;;34.04;40.74;101096.44;5094523;28;20116;-78
2021/07/10 12:44:52;;;;;;;9.75;4.13;;;;;;;33.18;42.07;101099.50;5093969;28;20023;-77
2021/07/10 12:47:38;;;;;;;7.05;4.15;;;;;;;33.78;40.86;101090.22;5093457;28;20100;-77
2021/07/10 12:50:24;;;;;;;8.77;3.70;;;;;;;33.94;39.49;101087.56;5094322;28;20039;-78
2021/07/10 12:53:12;;;;;;;7.82;3.80;;;;;;;34.20;38.47;101082.84;5092817;28;20028;-78